createdAt,value
2016-09-06T00:00:16.151Z,0
2016-09-06T00:02:21.115Z,0
2016-09-06T00:02:46.039Z,0
2016-09-06T00:03:17.421Z,0
2016-09-06T00:04:52.887Z,0
2016-09-06T00:05:24.167Z,0
2016-09-06T00:05:45.911Z,0
2016-09-06T00:06:12.423Z,0
2016-09-06T00:06:38.932Z,0
2016-09-06T00:07:00.699Z,0
2016-09-06T00:09:20.452Z,0
2016-09-06T00:10:11.424Z,0
2016-09-06T00:10:37.966Z,0
2016-09-06T00:10:59.729Z,0
2016-09-06T00:11:27.239Z,0
2016-09-06T00:12:27.645Z,0
2016-09-06T00:14:46.070Z,0
2016-09-06T00:15:19.972Z,0
2016-09-06T00:15:46.567Z,0
2016-09-06T00:16:13.200Z,0
2016-09-06T00:16:47.496Z,0
2016-09-06T00:17:22.409Z,0
2016-09-06T00:17:44.314Z,0
2016-09-06T00:18:06.196Z,0
2016-09-06T00:18:33.226Z,0
2016-09-06T00:22:07.236Z,0
2016-09-06T00:22:30.030Z,0
2016-09-06T00:22:56.407Z,0
2016-09-06T00:23:22.958Z,0
2016-09-06T00:23:50.493Z,0
2016-09-06T00:24:46.406Z,0
2016-09-06T00:25:15.521Z,0
2016-09-06T00:25:45.648Z,0
2016-09-06T00:26:49.371Z,0
2016-09-06T00:27:23.259Z,0
2016-09-06T00:27:49.827Z,0
2016-09-06T00:28:58.353Z,0
2016-09-06T00:29:24.874Z,0
2016-09-06T00:30:09.645Z,0
2016-09-06T00:32:04.842Z,0
2016-09-06T00:32:37.124Z,0
2016-09-06T00:34:32.315Z,0
2016-09-06T00:35:03.648Z,0
2016-09-06T00:36:43.482Z,0
2016-09-06T00:37:44.901Z,0
2016-09-06T00:39:35.508Z,0
2016-09-06T00:40:06.781Z,0
2016-09-06T00:40:34.140Z,0
2016-09-06T00:41:57.764Z,0
2016-09-06T00:42:19.533Z,0
2016-09-06T00:43:08.830Z,0
2016-09-06T00:43:31.658Z,0
2016-09-06T00:44:02.967Z,0
2016-09-06T00:45:06.987Z,0
2016-09-06T00:45:39.265Z,0
2016-09-06T00:46:42.660Z,0
2016-09-06T00:47:13.787Z,0
2016-09-06T00:48:22.002Z,0
2016-09-06T00:49:19.642Z,0
2016-09-06T00:49:47.352Z,0
2016-09-06T00:50:18.992Z,0
2016-09-06T00:50:45.580Z,0
2016-09-06T00:51:07.428Z,0
2016-09-06T00:51:37.544Z,0
2016-09-06T00:52:31.553Z,0
2016-09-06T00:52:59.159Z,0
2016-09-06T04:07:41.544Z,0
2016-09-06T04:09:22.951Z,0
2016-09-06T04:26:42.862Z,0
2016-09-06T04:27:58.075Z,0
2016-09-06T05:06:18.753Z,0
2016-09-06T05:06:40.512Z,0
2016-09-06T05:07:28.801Z,0
2016-09-06T05:07:50.567Z,1
2016-09-06T05:08:12.350Z,1
2016-09-06T05:08:34.094Z,1
2016-09-06T05:09:27.111Z,1
2016-09-06T05:09:53.613Z,1
2016-09-06T05:10:15.358Z,1
2016-09-06T05:10:37.089Z,1
2016-09-06T05:11:04.593Z,1
2016-09-06T05:11:26.446Z,1
2016-09-06T05:11:49.275Z,1
2016-09-06T05:12:11.003Z,1
2016-09-06T05:13:04.056Z,1
2016-09-06T05:13:25.793Z,1
2016-09-06T05:13:47.534Z,1
2016-09-06T05:14:09.329Z,1
2016-09-06T05:14:31.077Z,1
2016-09-06T05:14:52.805Z,1
2016-09-06T05:15:14.898Z,1
2016-09-06T05:15:36.622Z,1
2016-09-06T05:15:58.347Z,1
2016-09-06T05:16:20.222Z,1
2016-09-06T05:16:41.947Z,1
2016-09-06T05:17:03.675Z,1
2016-09-06T05:17:25.402Z,1
2016-09-06T05:17:47.131Z,1
2016-09-06T05:18:08.866Z,1
2016-09-06T05:18:30.587Z,1
2016-09-06T05:18:52.343Z,1
2016-09-06T05:19:14.157Z,1
2016-09-06T05:19:35.895Z,1
2016-09-06T05:19:57.624Z,1
2016-09-06T05:20:19.349Z,1
2016-09-06T05:20:41.083Z,1
2016-09-06T05:21:02.868Z,1
2016-09-06T05:21:24.625Z,1
2016-09-06T05:21:46.350Z,1
2016-09-06T05:22:08.081Z,1
2016-09-06T05:22:29.812Z,1
2016-09-06T05:22:51.575Z,1
2016-09-06T05:23:39.841Z,1
2016-09-06T05:24:01.573Z,1
2016-09-06T05:24:24.308Z,1
2016-09-06T05:24:46.036Z,1
2016-09-06T05:25:07.767Z,1
2016-09-06T05:25:29.492Z,1
2016-09-06T05:25:51.224Z,1
2016-09-06T05:26:12.952Z,1
2016-09-06T05:26:34.692Z,1
2016-09-06T05:26:56.439Z,1
2016-09-06T05:27:18.181Z,2
2016-09-06T05:27:39.928Z,2
2016-09-06T05:28:01.666Z,2
2016-09-06T05:28:23.589Z,2
2016-09-06T05:28:45.319Z,2
2016-09-06T05:29:07.055Z,2
2016-09-06T05:29:28.782Z,2
2016-09-06T05:29:51.518Z,2
2016-09-06T05:30:13.243Z,2
2016-09-06T05:30:34.975Z,2
2016-09-06T05:30:56.747Z,2
2016-09-06T05:31:18.466Z,2
2016-09-06T05:31:40.196Z,2
2016-09-06T05:32:01.924Z,2
2016-09-06T05:32:23.652Z,2
2016-09-06T05:33:11.886Z,2
2016-09-06T05:33:38.394Z,2
2016-09-06T05:34:00.123Z,2
2016-09-06T05:34:51.063Z,2
2016-09-06T05:35:15.365Z,2
2016-09-06T05:35:37.102Z,2
2016-09-06T05:35:58.837Z,2
2016-09-06T05:36:20.558Z,2
2016-09-06T05:36:45.182Z,2
2016-09-06T05:37:09.531Z,2
2016-09-06T05:37:36.039Z,2
2016-09-06T05:38:02.532Z,2
2016-09-06T05:38:24.266Z,2
2016-09-06T05:38:50.762Z,2
2016-09-06T05:39:12.484Z,2
2016-09-06T05:39:38.814Z,2
2016-09-06T05:40:00.555Z,2
2016-09-06T05:40:22.290Z,2
2016-09-06T05:40:46.574Z,2
2016-09-06T05:41:08.311Z,2
2016-09-06T05:41:31.121Z,2
2016-09-06T05:41:55.604Z,2
2016-09-06T05:42:17.336Z,2
2016-09-06T05:42:40.417Z,2
2016-09-06T05:43:06.986Z,2
2016-09-06T05:43:29.041Z,2
2016-09-06T05:44:22.065Z,2
2016-09-06T05:44:48.558Z,2
2016-09-06T05:45:10.295Z,3
2016-09-06T05:45:36.784Z,3
2016-09-06T05:45:58.539Z,3
2016-09-06T05:46:20.267Z,3
2016-09-06T05:46:46.778Z,3
2016-09-06T05:47:14.273Z,3
2016-09-06T05:47:36.001Z,3
2016-09-06T05:47:58.728Z,3
2016-09-06T05:48:20.455Z,3
2016-09-06T05:48:45.934Z,3
2016-09-06T05:49:10.231Z,3
2016-09-06T05:49:31.960Z,3
2016-09-06T05:49:53.688Z,3
2016-09-06T05:50:15.422Z,3
2016-09-06T05:50:37.156Z,3
2016-09-06T05:50:58.875Z,3
2016-09-06T05:51:20.618Z,3
2016-09-06T05:51:42.372Z,3
2016-09-06T05:52:04.100Z,3
2016-09-06T05:52:25.828Z,3
2016-09-06T05:52:47.569Z,3
2016-09-06T05:53:09.284Z,3
2016-09-06T05:53:33.707Z,3
2016-09-06T05:53:55.483Z,3
2016-09-06T05:54:17.213Z,3
2016-09-06T05:54:38.935Z,3
2016-09-06T05:55:00.664Z,3
2016-09-06T05:55:22.396Z,3
2016-09-06T05:55:44.126Z,3
2016-09-06T05:56:05.847Z,3
2016-09-06T05:56:27.575Z,3
2016-09-06T05:56:49.304Z,3
2016-09-06T05:57:11.031Z,3
2016-09-06T05:57:32.766Z,3
2016-09-06T05:57:54.727Z,3
2016-09-06T05:58:16.462Z,3
2016-09-06T05:58:38.187Z,3
2016-09-06T05:58:59.924Z,3
2016-09-06T05:59:21.662Z,3
2016-09-06T05:59:43.402Z,3
2016-09-06T06:00:05.137Z,3
2016-09-06T06:00:26.855Z,3
2016-09-06T06:00:48.583Z,3
2016-09-06T06:01:10.305Z,3
2016-09-06T06:01:32.055Z,3
2016-09-06T06:01:53.780Z,3
2016-09-06T06:02:15.502Z,4
2016-09-06T06:02:37.237Z,4
2016-09-06T06:02:58.967Z,4
2016-09-06T06:03:20.709Z,4
2016-09-06T06:03:42.426Z,4
2016-09-06T06:04:04.162Z,4
2016-09-06T06:04:25.889Z,4
2016-09-06T06:04:47.618Z,4
2016-09-06T06:05:09.339Z,4
2016-09-06T06:05:31.066Z,4
2016-09-06T06:05:52.808Z,4
2016-09-06T06:06:14.520Z,4
2016-09-06T06:06:36.264Z,4
2016-09-06T06:06:58.002Z,4
2016-09-06T06:07:19.725Z,4
2016-09-06T06:07:41.457Z,4
2016-09-06T06:08:03.192Z,4
2016-09-06T06:08:24.941Z,4
2016-09-06T06:08:46.664Z,4
2016-09-06T06:09:08.392Z,4
2016-09-06T06:09:30.123Z,4
2016-09-06T06:09:51.848Z,4
2016-09-06T06:10:13.563Z,4
2016-09-06T06:10:35.291Z,4
2016-09-06T06:10:57.009Z,4
2016-09-06T06:11:18.728Z,4
2016-09-06T06:11:40.459Z,4
2016-09-06T06:12:02.185Z,4
2016-09-06T06:12:23.899Z,4
2016-09-06T06:12:45.627Z,4
2016-09-06T06:13:07.482Z,4
2016-09-06T06:13:29.203Z,4
2016-09-06T06:13:50.933Z,4
2016-09-06T06:14:12.655Z,4
2016-09-06T06:14:34.385Z,4
2016-09-06T06:14:56.113Z,4
2016-09-06T06:15:17.857Z,4
2016-09-06T06:15:39.576Z,4
2016-09-06T06:16:01.310Z,4
2016-09-06T06:16:23.032Z,4
2016-09-06T06:16:44.770Z,4
2016-09-06T06:17:06.494Z,4
2016-09-06T06:17:28.226Z,5
2016-09-06T06:17:49.959Z,5
2016-09-06T06:18:11.675Z,5
2016-09-06T06:18:33.409Z,5
2016-09-06T06:18:55.134Z,5
2016-09-06T06:19:16.862Z,5
2016-09-06T06:19:38.587Z,5
2016-09-06T06:20:00.315Z,5
2016-09-06T06:20:22.030Z,5
2016-09-06T06:20:43.764Z,5
2016-09-06T06:21:05.476Z,5
2016-09-06T06:21:27.217Z,5
2016-09-06T06:21:48.939Z,5
2016-09-06T06:22:10.670Z,5
2016-09-06T06:22:32.398Z,6
2016-09-06T06:22:54.123Z,7
2016-09-06T06:23:18.545Z,13
2016-09-06T06:23:40.328Z,24
2016-09-06T06:24:02.043Z,33
2016-09-06T06:24:23.767Z,38
2016-09-06T06:24:45.477Z,37
2016-09-06T06:25:07.199Z,31
2016-09-06T06:25:28.926Z,21
2016-09-06T06:25:50.656Z,11
2016-09-06T06:26:17.141Z,6
2016-09-06T06:26:38.859Z,6
2016-09-06T06:27:00.580Z,5
2016-09-06T06:27:22.299Z,5
2016-09-06T06:27:44.101Z,5
2016-09-06T06:28:05.828Z,5
2016-09-06T06:28:27.541Z,5
2016-09-06T06:28:49.265Z,5
2016-09-06T06:29:10.996Z,5
2016-09-06T06:29:32.715Z,5
2016-09-06T06:29:54.430Z,5
2016-09-06T06:30:16.142Z,5
2016-09-06T06:30:37.880Z,5
2016-09-06T06:30:59.618Z,5
2016-09-06T06:31:21.330Z,5
2016-09-06T06:31:43.054Z,5
2016-09-06T06:32:04.785Z,5
2016-09-06T06:32:26.497Z,5
2016-09-06T06:32:48.213Z,5
2016-09-06T06:33:09.982Z,5
2016-09-06T06:33:31.707Z,5
2016-09-06T06:33:53.431Z,5
2016-09-06T06:34:15.154Z,5
2016-09-06T06:34:36.879Z,5
2016-09-06T06:34:58.597Z,5
2016-09-06T06:35:20.332Z,5
2016-09-06T06:35:42.056Z,5
2016-09-06T06:36:03.775Z,5
2016-09-06T06:36:25.502Z,5
2016-09-06T06:36:50.037Z,5
2016-09-06T06:37:11.765Z,5
2016-09-06T06:37:33.476Z,5
2016-09-06T06:37:55.201Z,5
2016-09-06T06:38:16.913Z,5
2016-09-06T06:38:38.632Z,5
2016-09-06T06:39:00.350Z,5
2016-09-06T06:39:22.075Z,6
2016-09-06T06:39:43.797Z,6
2016-09-06T06:40:05.531Z,6
2016-09-06T06:40:27.263Z,6
2016-09-06T06:40:48.994Z,6
2016-09-06T06:41:10.721Z,6
2016-09-06T06:41:32.443Z,6
2016-09-06T06:41:54.162Z,6
2016-09-06T06:42:15.887Z,6
2016-09-06T06:42:37.614Z,6
2016-09-06T06:43:00.340Z,6
2016-09-06T06:43:22.055Z,6
2016-09-06T06:43:43.848Z,6
2016-09-06T06:44:05.560Z,6
2016-09-06T06:44:27.288Z,6
2016-09-06T06:44:49.086Z,6
2016-09-06T06:45:10.817Z,6
2016-09-06T06:45:32.550Z,6
2016-09-06T06:45:54.267Z,6
2016-09-06T06:46:15.999Z,6
2016-09-06T06:46:37.720Z,6
2016-09-06T06:46:59.445Z,6
2016-09-06T06:47:21.237Z,6
2016-09-06T06:47:42.966Z,6
2016-09-06T06:48:04.683Z,6
2016-09-06T06:48:26.426Z,6
2016-09-06T06:48:48.136Z,6
2016-09-06T06:49:09.859Z,6
2016-09-06T06:49:31.569Z,6
2016-09-06T06:49:53.314Z,6
2016-09-06T06:50:15.032Z,6
2016-09-06T06:50:36.757Z,6
2016-09-06T06:50:58.475Z,6
2016-09-06T06:51:20.198Z,6
2016-09-06T06:51:41.912Z,6
2016-09-06T06:52:03.639Z,6
2016-09-06T06:52:25.356Z,6
2016-09-06T06:52:47.080Z,6
2016-09-06T06:53:08.805Z,6
2016-09-06T06:53:30.524Z,6
2016-09-06T06:53:52.241Z,6
2016-09-06T06:54:16.844Z,6
2016-09-06T06:54:38.565Z,6
2016-09-06T06:55:00.290Z,6
2016-09-06T06:55:22.011Z,6
2016-09-06T06:55:43.730Z,6
2016-09-06T06:56:05.451Z,6
2016-09-06T06:56:27.164Z,6
2016-09-06T06:56:48.876Z,6
2016-09-06T06:57:10.587Z,6
2016-09-06T06:57:32.307Z,6
2016-09-06T06:57:54.025Z,6
2016-09-06T06:58:16.744Z,6
2016-09-06T06:58:38.469Z,6
2016-09-06T06:59:00.207Z,6
2016-09-06T06:59:22.046Z,6
2016-09-06T06:59:43.765Z,6
2016-09-06T07:00:05.491Z,6
2016-09-06T07:00:27.209Z,6
2016-09-06T07:00:48.926Z,6
2016-09-06T07:01:39.756Z,6
2016-09-06T07:02:01.480Z,6
2016-09-06T07:02:27.422Z,6
2016-09-06T07:02:49.142Z,6
2016-09-06T07:03:10.865Z,6
2016-09-06T07:03:32.578Z,6
2016-09-06T07:03:54.300Z,6
2016-09-06T07:04:16.012Z,6
2016-09-06T07:04:37.737Z,7
2016-09-06T07:04:59.470Z,7
2016-09-06T07:05:21.196Z,7
2016-09-06T07:05:42.914Z,7
2016-09-06T07:06:04.722Z,7
2016-09-06T07:06:26.444Z,7
2016-09-06T07:06:48.166Z,7
2016-09-06T07:07:09.891Z,7
2016-09-06T07:07:31.609Z,7
2016-09-06T07:07:53.362Z,7
2016-09-06T07:08:15.084Z,7
2016-09-06T07:08:36.807Z,7
2016-09-06T07:08:58.533Z,7
2016-09-06T07:09:20.255Z,7
2016-09-06T07:09:44.418Z,7
2016-09-06T07:10:06.150Z,7
2016-09-06T07:10:32.649Z,7
2016-09-06T07:10:54.360Z,7
2016-09-06T07:11:16.073Z,7
2016-09-06T07:11:37.784Z,7
2016-09-06T07:11:59.541Z,7
2016-09-06T07:12:21.260Z,7
2016-09-06T07:12:42.981Z,7
2016-09-06T07:13:04.700Z,7
2016-09-06T07:13:26.427Z,7
2016-09-06T07:13:48.137Z,7
2016-09-06T07:14:09.867Z,7
2016-09-06T07:14:31.583Z,7
2016-09-06T07:14:53.326Z,7
2016-09-06T07:15:16.014Z,7
2016-09-06T07:15:37.740Z,7
2016-09-06T07:15:59.465Z,7
2016-09-06T07:16:23.944Z,7
2016-09-06T07:16:45.675Z,7
2016-09-06T07:17:07.407Z,7
2016-09-06T07:17:29.173Z,7
2016-09-06T07:17:53.717Z,7
2016-09-06T07:18:56.236Z,7
2016-09-06T07:19:20.884Z,7
2016-09-06T07:19:51.959Z,7
2016-09-06T07:20:13.682Z,7
2016-09-06T07:20:35.407Z,7
2016-09-06T07:20:57.112Z,7
2016-09-06T07:21:18.848Z,7
2016-09-06T07:21:40.576Z,7
2016-09-06T07:22:02.297Z,7
2016-09-06T07:22:24.022Z,7
2016-09-06T07:22:45.749Z,7
2016-09-06T07:23:07.478Z,7
2016-09-06T07:23:29.231Z,7
2016-09-06T07:23:50.949Z,7
2016-09-06T07:24:12.681Z,7
2016-09-06T07:25:10.553Z,7
2016-09-06T07:25:32.274Z,7
2016-09-06T07:26:20.476Z,7
2016-09-06T07:26:42.203Z,7
2016-09-06T07:27:03.944Z,7
2016-09-06T07:27:28.437Z,7
2016-09-06T07:27:50.032Z,7
2016-09-06T07:28:11.934Z,7
2016-09-06T07:28:34.991Z,7
2016-09-06T07:28:56.726Z,7
2016-09-06T07:29:19.613Z,7
2016-09-06T07:29:41.519Z,7
2016-09-06T07:30:03.487Z,7
2016-09-06T07:30:25.330Z,7
2016-09-06T07:30:47.120Z,7
2016-09-06T07:31:12.981Z,7
2016-09-06T07:31:34.712Z,7
2016-09-06T07:31:59.358Z,7
2016-09-06T07:32:47.568Z,7
2016-09-06T07:33:09.318Z,7
2016-09-06T07:33:31.085Z,7
2016-09-06T07:33:53.039Z,7
2016-09-06T07:34:41.688Z,7
2016-09-06T07:35:08.322Z,7
2016-09-06T07:35:30.168Z,7
2016-09-06T07:35:51.932Z,7
2016-09-06T07:36:13.673Z,7
2016-09-06T07:36:35.420Z,7
2016-09-06T07:36:58.163Z,7
2016-09-06T07:37:20.909Z,7
2016-09-06T07:37:43.762Z,7
2016-09-06T07:38:05.523Z,7
2016-09-06T07:38:27.372Z,7
2016-09-06T07:38:49.282Z,7
2016-09-06T07:39:11.148Z,7
2016-09-06T07:39:32.917Z,7
2016-09-06T07:39:54.725Z,7
2016-09-06T07:40:17.558Z,7
2016-09-06T07:40:39.295Z,7
2016-09-06T07:41:01.093Z,7
2016-09-06T07:41:22.927Z,7
2016-09-06T07:41:45.385Z,7
2016-09-06T07:42:08.441Z,7
2016-09-06T07:42:30.421Z,7
2016-09-06T07:42:53.445Z,7
2016-09-06T07:43:15.558Z,8
2016-09-06T07:43:37.509Z,7
2016-09-06T07:44:04.155Z,8
2016-09-06T07:44:30.783Z,8
2016-09-06T07:44:52.702Z,8
2016-09-06T07:45:19.004Z,8
2016-09-06T07:45:45.538Z,8
2016-09-06T07:46:07.456Z,8
2016-09-06T07:46:29.334Z,8
2016-09-06T07:46:51.323Z,8
2016-09-06T07:47:22.665Z,8
2016-09-06T07:47:44.492Z,8
2016-09-06T07:48:11.014Z,8
2016-09-06T07:48:33.992Z,8
2016-09-06T07:48:55.803Z,8
2016-09-06T07:49:22.386Z,8
2016-09-06T07:49:44.486Z,8
2016-09-06T07:50:41.301Z,8
2016-09-06T07:51:09.007Z,8
2016-09-06T07:51:36.547Z,8
2016-09-06T07:52:13.081Z,8
2016-09-06T07:52:35.935Z,8
2016-09-06T07:53:04.847Z,8
2016-09-06T07:53:26.690Z,8
2016-09-06T07:53:54.278Z,8
2016-09-06T07:54:16.233Z,8
2016-09-06T07:55:10.678Z,8
2016-09-06T07:55:37.187Z,8
2016-09-06T07:55:59.132Z,8
2016-09-06T07:56:20.867Z,8
2016-09-06T07:56:42.616Z,8
2016-09-06T07:57:04.636Z,8
2016-09-06T07:57:27.688Z,8
2016-09-06T07:57:49.696Z,8
2016-09-06T07:58:11.577Z,8
2016-09-06T07:58:33.451Z,8
2016-09-06T07:58:55.298Z,8
2016-09-06T07:59:17.056Z,8
2016-09-06T08:00:10.248Z,8
2016-09-06T08:00:32.133Z,8
2016-09-06T08:00:53.928Z,8
2016-09-06T08:01:15.762Z,8
2016-09-06T08:01:37.506Z,8
2016-09-06T08:02:00.251Z,8
2016-09-06T08:02:21.988Z,8
2016-09-06T08:02:43.826Z,8
2016-09-06T08:03:05.907Z,8
2016-09-06T08:03:34.264Z,8
2016-09-06T08:05:19.695Z,8
2016-09-06T08:05:43.433Z,8
2016-09-06T08:06:05.208Z,8
2016-09-06T08:06:26.966Z,8
2016-09-06T08:06:56.901Z,8
2016-09-06T08:07:18.642Z,8
2016-09-06T08:07:40.395Z,8
2016-09-06T08:08:06.914Z,8
2016-09-06T08:08:29.888Z,8
2016-09-06T08:08:51.756Z,8
2016-09-06T08:09:13.694Z,8
2016-09-06T08:09:36.604Z,8
2016-09-06T08:09:58.462Z,8
2016-09-06T08:10:20.367Z,8
2016-09-06T08:10:42.341Z,8
2016-09-06T08:11:04.155Z,8
2016-09-06T08:11:25.986Z,8
2016-09-06T08:11:48.025Z,8
2016-09-06T08:12:09.930Z,8
2016-09-06T08:12:31.673Z,8
2016-09-06T08:12:53.486Z,8
2016-09-06T08:13:16.389Z,8
2016-09-06T08:13:38.370Z,8
2016-09-06T08:14:02.879Z,8
2016-09-06T08:14:24.703Z,8
2016-09-06T08:14:49.471Z,8
2016-09-06T08:15:11.250Z,8
2016-09-06T08:15:33.295Z,8
2016-09-06T08:16:00.028Z,8
2016-09-06T08:16:21.986Z,8
2016-09-06T08:16:43.890Z,8
2016-09-06T08:17:05.625Z,8
2016-09-06T08:17:28.441Z,8
2016-09-06T08:17:50.338Z,8
2016-09-06T08:18:14.178Z,8
2016-09-06T08:18:37.074Z,8
2016-09-06T08:19:03.603Z,8
2016-09-06T08:19:25.563Z,8
2016-09-06T08:19:47.410Z,8
2016-09-06T08:20:09.263Z,8
2016-09-06T08:20:31.036Z,8
2016-09-06T08:20:57.571Z,8
2016-09-06T08:21:24.213Z,8
2016-09-06T08:21:50.764Z,8
2016-09-06T08:22:22.050Z,8
2016-09-06T08:22:44.235Z,8
2016-09-06T08:23:07.055Z,8
2016-09-06T08:23:28.848Z,8
2016-09-06T08:23:51.675Z,8
2016-09-06T08:24:13.413Z,8
2016-09-06T08:24:35.369Z,8
2016-09-06T08:24:57.244Z,8
2016-09-06T08:25:19.064Z,8
2016-09-06T08:25:40.896Z,8
2016-09-06T08:26:29.314Z,8
2016-09-06T08:26:51.052Z,8
2016-09-06T08:27:12.797Z,8
2016-09-06T08:27:35.584Z,8
2016-09-06T08:27:57.445Z,9
2016-09-06T08:28:19.323Z,9
2016-09-06T08:28:41.091Z,9
2016-09-06T08:29:02.955Z,9
2016-09-06T08:29:24.800Z,9
2016-09-06T08:29:46.540Z,9
2016-09-06T08:30:08.277Z,9
2016-09-06T08:30:30.021Z,9
2016-09-06T08:30:51.782Z,9
2016-09-06T08:31:13.609Z,9
2016-09-06T08:31:35.621Z,9
2016-09-06T08:31:57.478Z,9
2016-09-06T08:32:19.320Z,9
2016-09-06T08:32:41.141Z,9
2016-09-06T08:33:02.882Z,9
2016-09-06T08:33:24.735Z,9
2016-09-06T08:33:51.244Z,9
2016-09-06T08:34:13.135Z,9
2016-09-06T08:34:34.959Z,9
2016-09-06T08:34:56.809Z,9
2016-09-06T08:35:18.591Z,9
2016-09-06T08:35:40.361Z,9
2016-09-06T08:36:02.140Z,9
2016-09-06T08:36:23.878Z,9
2016-09-06T08:36:45.775Z,9
2016-09-06T08:37:12.261Z,9
2016-09-06T08:37:38.773Z,9
2016-09-06T08:38:00.525Z,9
2016-09-06T08:38:22.262Z,9
2016-09-06T08:38:44.033Z,9
2016-09-06T08:39:06.879Z,9
2016-09-06T08:39:28.646Z,9
2016-09-06T08:39:50.380Z,9
2016-09-06T08:40:12.188Z,9
2016-09-06T08:40:33.984Z,9
2016-09-06T08:40:55.733Z,9
2016-09-06T08:41:17.484Z,9
2016-09-06T08:42:10.614Z,9
2016-09-06T08:42:32.448Z,9
2016-09-06T08:42:54.188Z,9
2016-09-06T08:43:16.022Z,9
2016-09-06T08:43:38.767Z,9
2016-09-06T08:44:00.646Z,9
2016-09-06T08:44:22.368Z,9
2016-09-06T08:44:45.125Z,9
2016-09-06T08:45:06.860Z,9
2016-09-06T08:45:28.751Z,9
2016-09-06T08:45:52.630Z,9
2016-09-06T08:46:14.412Z,9
2016-09-06T08:46:36.142Z,9
2016-09-06T08:46:58.006Z,9
2016-09-06T08:47:19.727Z,9
2016-09-06T08:47:41.490Z,9
2016-09-06T08:48:29.807Z,9
2016-09-06T08:48:51.615Z,9
2016-09-06T08:49:13.357Z,9
2016-09-06T08:49:35.148Z,9
2016-09-06T08:49:56.966Z,9
2016-09-06T08:50:18.796Z,9
2016-09-06T08:50:40.697Z,9
2016-09-06T08:51:02.512Z,9
2016-09-06T08:51:24.294Z,9
2016-09-06T08:51:46.185Z,9
2016-09-06T08:52:08.066Z,9
2016-09-06T08:52:29.964Z,9
2016-09-06T08:52:54.617Z,9
2016-09-06T08:53:16.467Z,9
2016-09-06T08:53:38.214Z,9
2016-09-06T08:53:59.951Z,9
2016-09-06T08:54:21.685Z,9
2016-09-06T08:54:43.512Z,9
2016-09-06T08:55:05.340Z,9
2016-09-06T08:55:27.343Z,9
2016-09-06T08:55:49.074Z,9
2016-09-06T08:56:10.838Z,9
2016-09-06T08:56:32.568Z,9
2016-09-06T08:56:54.316Z,9
2016-09-06T08:57:16.050Z,9
2016-09-06T08:57:37.769Z,9
2016-09-06T08:57:59.515Z,9
2016-09-06T08:58:21.244Z,9
2016-09-06T08:58:47.749Z,9
2016-09-06T08:59:09.468Z,9
2016-09-06T08:59:31.231Z,9
2016-09-06T08:59:52.979Z,9
2016-09-06T09:00:14.975Z,9
2016-09-06T09:00:36.729Z,9
2016-09-06T09:00:58.469Z,9
2016-09-06T09:01:23.208Z,9
2016-09-06T09:01:44.946Z,9
2016-09-06T09:02:06.669Z,9
2016-09-06T09:02:28.460Z,9
2016-09-06T09:02:50.211Z,9
2016-09-06T09:03:11.945Z,9
2016-09-06T09:03:33.682Z,9
2016-09-06T09:03:55.424Z,9
2016-09-06T09:04:17.164Z,9
2016-09-06T09:04:38.905Z,9
2016-09-06T09:05:00.639Z,9
2016-09-06T09:05:22.366Z,9
2016-09-06T09:05:44.108Z,9
2016-09-06T09:06:08.447Z,9
2016-09-06T09:06:30.178Z,9
2016-09-06T09:06:52.908Z,10
2016-09-06T09:07:14.693Z,10
2016-09-06T09:07:36.424Z,10
2016-09-06T09:07:58.165Z,10
2016-09-06T09:08:19.907Z,10
2016-09-06T09:08:44.220Z,10
2016-09-06T09:09:05.811Z,10
2016-09-06T09:09:28.544Z,10
2016-09-06T09:09:50.281Z,10
2016-09-06T09:10:12.034Z,10
2016-09-06T09:10:33.763Z,10
2016-09-06T09:10:55.523Z,10
2016-09-06T09:11:17.276Z,10
2016-09-06T09:11:39.029Z,10
2016-09-06T09:12:00.741Z,10
2016-09-06T09:12:22.483Z,10
2016-09-06T09:12:44.460Z,10
2016-09-06T09:13:06.060Z,10
2016-09-06T09:13:27.791Z,10
2016-09-06T09:13:49.514Z,10
2016-09-06T09:14:11.241Z,10
2016-09-06T09:14:37.740Z,10
2016-09-06T09:15:03.314Z,10
2016-09-06T09:15:25.027Z,10
2016-09-06T09:15:46.745Z,10
2016-09-06T09:16:08.489Z,10
2016-09-06T09:16:56.733Z,10
2016-09-06T09:17:21.327Z,10
2016-09-06T09:17:43.052Z,10
2016-09-06T09:18:04.805Z,10
2016-09-06T09:18:31.177Z,10
2016-09-06T09:18:57.680Z,10
2016-09-06T09:19:48.358Z,10
2016-09-06T09:20:19.666Z,10
2016-09-06T09:20:46.342Z,10
2016-09-06T09:21:08.080Z,10
2016-09-06T09:21:37.263Z,10
2016-09-06T09:22:01.045Z,10
2016-09-06T09:22:22.745Z,10
2016-09-06T09:22:44.483Z,10
2016-09-06T09:23:08.538Z,10
2016-09-06T09:23:32.884Z,10
2016-09-06T09:23:57.016Z,10
2016-09-06T09:24:18.750Z,10
2016-09-06T09:24:48.139Z,10
2016-09-06T09:25:12.719Z,10
2016-09-06T09:25:34.450Z,10
2016-09-06T09:26:03.903Z,10
2016-09-06T09:26:25.500Z,10
2016-09-06T09:26:52.441Z,10
2016-09-06T09:27:14.192Z,10
2016-09-06T09:27:40.700Z,10
2016-09-06T09:28:02.697Z,10
2016-09-06T09:28:29.187Z,10
2016-09-06T09:28:51.925Z,10
2016-09-06T09:29:13.669Z,10
2016-09-06T09:29:35.407Z,10
2016-09-06T09:29:59.782Z,10
2016-09-06T09:30:26.274Z,10
2016-09-06T09:30:48.008Z,10
2016-09-06T09:31:14.509Z,10
2016-09-06T09:31:36.249Z,10
2016-09-06T09:31:58.000Z,10
2016-09-06T09:32:19.715Z,10
2016-09-06T09:32:46.281Z,10
2016-09-06T09:33:09.152Z,10
2016-09-06T09:33:35.646Z,10
2016-09-06T09:34:24.863Z,10
2016-09-06T09:34:46.624Z,10
2016-09-06T09:35:34.854Z,10
2016-09-06T09:35:56.584Z,10
2016-09-06T09:36:18.310Z,10
2016-09-06T09:36:43.935Z,10
2016-09-06T09:37:05.669Z,10
2016-09-06T09:37:27.403Z,10
2016-09-06T09:37:52.048Z,10
2016-09-06T09:38:13.781Z,10
2016-09-06T09:38:35.516Z,10
2016-09-06T09:38:57.247Z,10
2016-09-06T09:39:18.997Z,10
2016-09-06T09:39:40.739Z,10
2016-09-06T09:40:02.460Z,10
2016-09-06T09:40:24.185Z,10
2016-09-06T09:40:46.917Z,10
2016-09-06T09:41:08.639Z,10
2016-09-06T09:41:30.389Z,10
2016-09-06T09:41:52.153Z,10
2016-09-06T09:42:13.862Z,10
2016-09-06T09:43:02.099Z,10
2016-09-06T09:43:23.820Z,10
2016-09-06T09:43:47.798Z,10
2016-09-06T09:44:09.507Z,10
2016-09-06T09:44:33.855Z,11
2016-09-06T09:44:57.609Z,11
2016-09-06T09:45:19.347Z,11
2016-09-06T09:45:41.106Z,11
2016-09-06T09:46:07.655Z,11
2016-09-06T09:46:29.387Z,11
2016-09-06T09:46:51.132Z,11
2016-09-06T09:47:15.097Z,11
2016-09-06T09:47:39.647Z,11
2016-09-06T09:48:02.374Z,11
2016-09-06T09:48:28.865Z,11
2016-09-06T09:48:55.641Z,11
2016-09-06T09:49:17.366Z,11
2016-09-06T09:49:39.107Z,11
2016-09-06T09:50:00.844Z,11
2016-09-06T09:50:27.351Z,11
2016-09-06T09:50:49.161Z,11
2016-09-06T09:51:18.536Z,11
2016-09-06T09:51:42.880Z,11
2016-09-06T09:52:05.618Z,11
2016-09-06T09:52:27.339Z,11
2016-09-06T09:52:49.088Z,11
2016-09-06T09:53:13.639Z,11
2016-09-06T09:54:09.891Z,11
2016-09-06T09:54:33.829Z,11
2016-09-06T09:55:29.561Z,11
2016-09-06T09:55:56.284Z,11
2016-09-06T09:56:17.996Z,11
2016-09-06T09:56:44.352Z,11
2016-09-06T09:57:10.707Z,11
2016-09-06T09:57:32.440Z,11
2016-09-06T09:57:57.384Z,11
2016-09-06T09:58:19.119Z,11
2016-09-06T09:58:43.679Z,11
2016-09-06T09:59:08.009Z,11
2016-09-06T09:59:31.775Z,12
2016-09-06T09:59:53.509Z,12
2016-09-06T10:00:22.760Z,11
2016-09-06T10:01:18.354Z,11
2016-09-06T10:01:52.623Z,12
2016-09-06T10:02:18.853Z,12
2016-09-06T10:03:06.935Z,12
2016-09-06T10:03:28.702Z,12
2016-09-06T10:03:50.441Z,12
2016-09-06T10:04:12.192Z,12
2016-09-06T10:04:33.921Z,12
2016-09-06T10:04:58.245Z,12
2016-09-06T10:05:30.095Z,12
2016-09-06T10:06:30.277Z,12
2016-09-06T10:06:54.008Z,12
2016-09-06T10:07:23.236Z,12
2016-09-06T10:07:47.788Z,12
2016-09-06T10:08:21.666Z,12
2016-09-06T10:08:43.404Z,12
2016-09-06T10:09:07.407Z,12
2016-09-06T10:09:29.099Z,12
2016-09-06T10:09:50.834Z,12
2016-09-06T10:10:12.565Z,13
2016-09-06T10:10:41.992Z,13
2016-09-06T10:11:05.931Z,13
2016-09-06T10:11:32.434Z,13
2016-09-06T10:11:54.174Z,13
2016-09-06T10:12:15.900Z,13
2016-09-06T10:12:42.430Z,13
2016-09-06T10:13:04.008Z,13
2016-09-06T10:13:25.746Z,13
2016-09-06T10:13:54.942Z,13
2016-09-06T10:14:16.680Z,13
2016-09-06T10:14:43.178Z,13
2016-09-06T10:15:07.345Z,13
2016-09-06T10:15:33.960Z,13
2016-09-06T10:16:00.568Z,13
2016-09-06T10:16:26.328Z,13
2016-09-06T10:16:52.811Z,13
2016-09-06T10:17:14.552Z,13
2016-09-06T10:17:43.621Z,13
2016-09-06T10:18:05.356Z,12
2016-09-06T10:18:31.861Z,13
2016-09-06T10:18:59.375Z,13
2016-09-06T10:19:23.918Z,13
2016-09-06T10:19:45.653Z,13
2016-09-06T10:20:10.127Z,13
2016-09-06T10:20:34.274Z,13
2016-09-06T10:21:01.601Z,13
2016-09-06T10:21:26.350Z,13
2016-09-06T10:21:50.693Z,13
2016-09-06T10:22:12.437Z,13
2016-09-06T10:23:02.862Z,13
2016-09-06T10:24:34.017Z,13
2016-09-06T10:25:05.281Z,13
2016-09-06T10:25:34.600Z,13
2016-09-06T10:25:58.626Z,14
2016-09-06T10:26:20.299Z,14
2016-09-06T10:26:46.644Z,14
2016-09-06T10:27:13.150Z,14
2016-09-06T10:27:44.417Z,15
2016-09-06T10:28:06.149Z,15
2016-09-06T10:28:32.644Z,15
2016-09-06T10:28:59.162Z,15
2016-09-06T10:29:23.375Z,15
2016-09-06T10:29:55.289Z,15